Terminal Aerodrome Forecast
Issued by NWS

Home | Current Version | Previous Version | Text Only | Print | Product List | Glossary On
Versions: 1 2 3 4 5 6 7 8 9 10 11 12 13 14 15 16 17 18
000
FTUS41 KLWX 242300
TAFMTN
TAF
KMTN 242320Z 2500/2524 29011KT P6SM SCT090
     FM250700 27006KT P6SM SCT250
     FM252100 VRB03KT P6SM BKN090
     FM252300 10004KT P6SM -SN OVC090
      AMD NOT SKED 2502/2512=

USA.gov is the U.S. government's official web portal to all federal, state and local government web resources and services.